createdAt,value
2023-04-02T00:01:26.632Z,26.67
2023-04-02T00:04:03.618Z,27.23
2023-04-02T00:06:33.066Z,26.65
2023-04-02T00:09:21.258Z,27.58
2023-04-02T00:11:49.524Z,26.92
2023-04-02T00:14:18.708Z,26.75
2023-04-02T00:16:46.278Z,25.25
2023-04-02T00:19:20.392Z,29.30
2023-04-02T00:21:48.121Z,26.88
2023-04-02T00:24:17.218Z,28.80
2023-04-02T00:26:46.035Z,26.80
2023-04-02T00:29:14.751Z,28.00
2023-04-02T00:31:43.955Z,26.00
2023-04-02T00:34:18.025Z,27.85
2023-04-02T00:36:46.660Z,26.67
2023-04-02T00:39:20.266Z,29.40
2023-04-02T00:41:47.652Z,30.77
2023-04-02T00:44:21.550Z,29.60
2023-04-02T00:46:49.845Z,30.23
2023-04-02T00:49:22.647Z,29.98
2023-04-02T00:51:55.365Z,29.02
2023-04-02T00:54:25.772Z,28.48
2023-04-02T00:56:54.506Z,30.10
2023-04-02T00:59:32.869Z,32.17
2023-04-02T01:02:19.990Z,33.65
2023-04-02T01:05:15.151Z,33.25
2023-04-02T01:07:57.631Z,35.58
2023-04-02T01:10:43.329Z,39.30
2023-04-02T01:13:13.533Z,39.88
2023-04-02T01:15:40.670Z,41.67
2023-04-02T01:18:33.407Z,37.75
2023-04-02T01:21:07.449Z,35.78
2023-04-02T01:23:37.636Z,36.92
2023-04-02T01:26:04.731Z,34.75
2023-04-02T01:28:50.595Z,32.25
2023-04-02T01:31:17.974Z,29.65
2023-04-02T01:33:45.429Z,30.50
2023-04-02T01:36:20.105Z,31.13
2023-04-02T01:38:51.779Z,27.75
2023-04-02T01:41:23.486Z,27.55
2023-04-02T01:43:56.549Z,28.65
2023-04-02T01:46:34.523Z,29.90
2023-04-02T01:49:03.172Z,29.17
2023-04-02T01:51:32.239Z,30.05
2023-04-02T01:54:01.233Z,29.25
2023-04-02T01:56:30.379Z,30.77
2023-04-02T01:58:58.383Z,32.47
2023-04-02T02:01:27.828Z,28.73
2023-04-02T02:03:55.521Z,31.80
2023-04-02T02:06:23.274Z,29.10
2023-04-02T02:08:52.452Z,29.90
2023-04-02T02:11:21.546Z,32.20
2023-04-02T02:13:53.189Z,31.30
2023-04-02T02:16:20.531Z,32.33
2023-04-02T02:18:50.235Z,30.15
2023-04-02T02:21:26.369Z,34.78
2023-04-02T02:23:53.519Z,35.75
2023-04-02T02:26:21.783Z,37.75
2023-04-02T02:28:51.428Z,41.88
2023-04-02T02:31:28.530Z,41.70
2023-04-02T02:33:59.215Z,44.17
2023-04-02T02:36:36.482Z,45.15
2023-04-02T02:39:22.531Z,44.78
2023-04-02T02:42:03.463Z,46.08
2023-04-02T02:44:33.022Z,48.92
2023-04-02T02:47:02.298Z,49.13
2023-04-02T02:49:32.423Z,52.85
2023-04-02T02:51:59.645Z,47.40
2023-04-02T02:54:28.086Z,54.92
2023-04-02T02:57:01.106Z,48.88
2023-04-02T02:59:29.331Z,50.42
2023-04-02T03:01:56.460Z,50.60
2023-04-02T03:04:24.216Z,48.05
2023-04-02T03:06:52.859Z,47.92
2023-04-02T03:09:28.826Z,53.50
2023-04-02T03:12:03.723Z,50.70
2023-04-02T03:14:36.277Z,54.40
2023-04-02T03:17:21.466Z,51.67
2023-04-02T03:19:55.987Z,51.42
2023-04-02T03:22:27.454Z,48.97
2023-04-02T03:25:21.036Z,49.10
2023-04-02T03:27:50.199Z,48.08
2023-04-02T03:30:29.420Z,45.63
2023-04-02T03:33:01.050Z,44.67
2023-04-02T03:35:37.187Z,46.42
2023-04-02T03:38:08.132Z,39.67
2023-04-02T03:40:58.379Z,46.03
2023-04-02T03:43:26.643Z,43.90
2023-04-02T03:45:56.767Z,44.78
2023-04-02T03:48:27.713Z,42.95
2023-04-02T03:51:01.032Z,46.63
2023-04-02T03:53:29.778Z,42.45
2023-04-02T03:55:57.795Z,41.80
2023-04-02T03:58:27.688Z,44.25
2023-04-02T04:01:07.209Z,44.22
2023-04-02T04:03:37.274Z,51.15
2023-04-02T04:06:12.532Z,48.08
2023-04-02T04:08:45.759Z,47.53
2023-04-02T04:11:17.475Z,49.53
2023-04-02T04:13:50.171Z,52.42
2023-04-02T04:16:21.878Z,50.38
2023-04-02T04:19:03.339Z,48.42
2023-04-02T04:21:37.575Z,47.40
2023-04-02T04:24:05.923Z,52.03
2023-04-02T04:26:44.429Z,52.45
2023-04-02T04:29:17.531Z,56.30
2023-04-02T04:31:50.865Z,53.20
2023-04-02T04:34:20.237Z,45.65
2023-04-02T04:36:55.590Z,48.63
2023-04-02T04:39:29.596Z,49.25
2023-04-02T04:41:58.674Z,51.42
2023-04-02T04:44:25.892Z,52.40
2023-04-02T04:47:08.258Z,44.55
2023-04-02T04:50:01.625Z,43.42
2023-04-02T04:52:30.934Z,45.83
2023-04-02T04:54:59.788Z,47.90
2023-04-02T04:57:32.550Z,47.17
2023-04-02T05:00:06.958Z,45.42
2023-04-02T05:02:38.358Z,45.45
2023-04-02T05:05:18.088Z,42.08
2023-04-02T05:07:53.983Z,44.13
2023-04-02T05:10:26.497Z,40.47
2023-04-02T05:12:53.563Z,44.83
2023-04-02T05:15:27.632Z,43.47
2023-04-02T05:17:54.724Z,42.95
2023-04-02T05:20:33.642Z,46.25
2023-04-02T05:23:13.065Z,42.35
2023-04-02T05:25:51.025Z,43.00
2023-04-02T05:28:20.392Z,37.80
2023-04-02T05:30:56.450Z,40.83
2023-04-02T05:33:23.699Z,40.05
2023-04-02T05:35:54.005Z,36.67
2023-04-02T05:38:23.215Z,38.57
2023-04-02T05:40:55.228Z,40.55
2023-04-02T05:43:24.875Z,41.47
2023-04-02T05:45:57.657Z,33.70
2023-04-02T05:48:35.791Z,34.40
2023-04-02T05:51:04.937Z,36.40
2023-04-02T05:53:36.783Z,33.10
2023-04-02T05:56:11.480Z,35.75
2023-04-02T05:58:45.482Z,38.92
2023-04-02T06:01:22.682Z,36.78
2023-04-02T06:03:58.869Z,32.65
2023-04-02T06:06:35.191Z,32.13
2023-04-02T06:09:08.759Z,37.88
2023-04-02T06:11:42.395Z,33.28
2023-04-02T06:14:13.196Z,31.88
2023-04-02T06:16:40.830Z,35.25
2023-04-02T06:19:11.366Z,31.70
2023-04-02T06:21:44.332Z,35.10
2023-04-02T06:24:14.245Z,36.28
2023-04-02T06:26:44.304Z,34.75
2023-04-02T06:29:30.429Z,34.28
2023-04-02T06:32:02.167Z,36.45
2023-04-02T06:34:30.714Z,32.80
2023-04-02T06:37:03.481Z,34.88
2023-04-02T06:39:30.682Z,35.17
2023-04-02T06:42:02.428Z,35.78
2023-04-02T06:44:32.428Z,36.38
2023-04-02T06:47:20.649Z,36.47
2023-04-02T06:49:51.392Z,38.42
2023-04-02T06:52:26.548Z,39.10
2023-04-02T06:54:54.043Z,38.60
2023-04-02T06:57:21.344Z,41.38
2023-04-02T06:59:48.536Z,36.53
2023-04-02T07:02:18.424Z,41.80
2023-04-02T07:04:45.632Z,40.38
2023-04-02T07:07:12.885Z,37.75
2023-04-02T07:09:40.343Z,36.80
2023-04-02T07:12:11.830Z,40.53
2023-04-02T07:14:38.952Z,36.33
2023-04-02T07:17:06.447Z,34.63
2023-04-02T07:19:33.616Z,38.70
2023-04-02T07:22:00.928Z,40.72
2023-04-02T07:24:28.104Z,37.53
2023-04-02T07:26:55.245Z,35.08
2023-04-02T07:29:22.398Z,38.22
2023-04-02T07:31:49.801Z,33.55
2023-04-02T07:34:17.004Z,35.03
2023-04-02T07:36:44.174Z,34.78
2023-04-02T07:39:12.236Z,35.90
2023-04-02T07:41:52.478Z,33.67
2023-04-02T07:44:19.659Z,33.22
2023-04-02T07:46:46.835Z,35.40
2023-04-02T07:49:13.998Z,32.53
2023-04-02T07:51:41.238Z,31.77
2023-04-02T07:54:10.294Z,31.00
2023-04-02T07:56:37.685Z,33.45
2023-04-02T07:59:05.070Z,30.83
2023-04-02T08:01:35.585Z,30.05
2023-04-02T08:04:03.965Z,26.35
2023-04-02T08:06:31.531Z,28.90
2023-04-02T08:08:59.347Z,33.45
2023-04-02T08:11:26.991Z,27.38
2023-04-02T08:13:54.170Z,23.98
2023-04-02T08:16:21.423Z,26.83
2023-04-02T08:18:48.595Z,30.38
2023-04-02T08:21:16.708Z,27.10
2023-04-02T08:23:44.014Z,30.58
2023-04-02T08:26:11.293Z,26.83
2023-04-02T08:28:38.499Z,26.77
2023-04-02T08:31:05.693Z,25.23
2023-04-02T08:33:32.996Z,24.35
2023-04-02T08:36:00.715Z,26.10
2023-04-02T08:38:27.916Z,22.45
2023-04-02T08:40:57.171Z,26.80
2023-04-02T08:43:40.932Z,27.55
2023-04-02T08:46:14.137Z,24.48
2023-04-02T08:48:43.202Z,26.73
2023-04-02T08:51:30.832Z,28.17
2023-04-02T08:54:02.698Z,26.05
2023-04-02T08:56:34.338Z,26.02
2023-04-02T08:59:04.105Z,25.23
2023-04-02T09:01:37.681Z,24.08
2023-04-02T09:04:07.735Z,28.25
2023-04-02T09:06:35.002Z,26.27
2023-04-02T09:09:02.147Z,25.15
2023-04-02T09:11:41.692Z,23.42
2023-04-02T09:14:16.619Z,24.83
2023-04-02T09:16:45.938Z,23.02
2023-04-02T09:19:16.249Z,22.88
2023-04-02T09:21:47.271Z,25.70
2023-04-02T09:24:14.381Z,24.25
2023-04-02T09:26:41.672Z,25.17
2023-04-02T09:29:08.856Z,23.90
2023-04-02T09:31:39.154Z,23.85
2023-04-02T09:34:25.616Z,25.73
2023-04-02T09:36:52.972Z,24.67
2023-04-02T09:39:21.679Z,23.75
2023-04-02T09:41:59.098Z,27.33
2023-04-02T09:44:32.431Z,26.83
2023-04-02T09:47:03.643Z,29.25
2023-04-02T09:52:17.247Z,35.20
2023-04-02T09:54:44.505Z,35.20
2023-04-02T09:57:24.017Z,32.53
2023-04-02T10:00:25.206Z,37.60
2023-04-02T10:03:21.642Z,35.42
2023-04-02T10:05:49.078Z,37.30
2023-04-02T10:08:24.034Z,37.25
2023-04-02T10:10:53.552Z,38.13
2023-04-02T10:13:23.584Z,35.33
2023-04-02T10:15:53.762Z,33.95
2023-04-02T10:18:31.349Z,39.15
2023-04-02T10:21:00.034Z,37.85
2023-04-02T10:23:29.161Z,42.63
2023-04-02T10:26:22.579Z,39.00
2023-04-02T10:28:56.042Z,38.88
2023-04-02T10:31:29.767Z,39.90
2023-04-02T10:34:04.624Z,40.63
2023-04-02T10:36:41.135Z,36.20
2023-04-02T10:39:14.592Z,34.88
2023-04-02T10:41:57.825Z,35.33
2023-04-02T10:44:29.109Z,34.42
2023-04-02T10:49:41.935Z,38.03
2023-04-02T10:52:15.670Z,35.13
2023-04-02T10:54:43.048Z,45.95
2023-04-02T10:57:46.393Z,38.72
2023-04-02T11:00:16.759Z,33.83
2023-04-02T11:02:47.097Z,34.23
2023-04-02T11:05:17.986Z,34.10
2023-04-02T11:08:07.058Z,32.03
2023-04-02T11:10:36.051Z,29.67
2023-04-02T11:13:06.631Z,31.52
2023-04-02T11:15:36.153Z,26.58
2023-04-02T11:18:03.635Z,28.77
2023-04-02T11:20:49.144Z,29.58
2023-04-02T11:23:19.244Z,27.88
2023-04-02T11:25:46.724Z,27.38
2023-04-02T11:28:19.988Z,26.48
2023-04-02T11:30:49.734Z,25.98
2023-04-02T11:33:35.907Z,26.63
2023-04-02T11:36:04.229Z,22.73
2023-04-02T11:38:50.526Z,22.90
2023-04-02T11:41:38.265Z,22.42
2023-04-02T11:44:05.596Z,19.02
2023-04-02T11:46:42.870Z,19.10
2023-04-02T11:49:28.741Z,18.98
2023-04-02T11:52:05.601Z,20.30
2023-04-02T11:54:38.920Z,18.73
2023-04-02T11:57:25.058Z,19.10
2023-04-02T12:00:17.566Z,17.20
2023-04-02T12:02:45.451Z,17.25
2023-04-02T12:05:21.969Z,17.67
2023-04-02T12:07:52.164Z,22.70
2023-04-02T12:10:24.161Z,23.70
2023-04-02T12:12:51.829Z,16.08
2023-04-02T12:15:38.085Z,16.80
2023-04-02T12:18:14.089Z,18.73
2023-04-02T12:20:42.837Z,19.33
2023-04-02T12:23:17.628Z,15.85
2023-04-02T12:25:46.373Z,16.98
2023-04-02T12:28:18.537Z,17.98
2023-04-02T12:30:46.666Z,18.42
2023-04-02T12:33:17.084Z,16.63
2023-04-02T12:35:44.953Z,17.52
2023-04-02T12:38:29.150Z,20.17
2023-04-02T12:40:59.791Z,25.00
2023-04-02T12:43:27.988Z,30.13
2023-04-02T12:45:56.460Z,18.45
2023-04-02T12:48:24.095Z,15.23
2023-04-02T12:50:51.760Z,17.35
2023-04-02T12:53:27.406Z,13.05
2023-04-02T12:55:54.838Z,14.95
2023-04-02T12:58:26.920Z,16.48
2023-04-02T13:00:54.248Z,17.15
2023-04-02T13:03:22.463Z,14.73
2023-04-02T13:05:51.522Z,18.17
2023-04-02T13:08:20.294Z,16.75
2023-04-02T13:10:52.925Z,17.25
2023-04-02T13:13:22.415Z,16.85
2023-04-02T13:16:00.640Z,18.60
2023-04-02T13:18:27.899Z,16.77
2023-04-02T13:20:57.331Z,21.30
2023-04-02T13:23:30.682Z,19.70
2023-04-02T13:25:59.310Z,18.98
2023-04-02T13:28:26.660Z,20.77
2023-04-02T13:30:53.901Z,22.20
2023-04-02T13:33:21.094Z,24.33
2023-04-02T13:35:48.296Z,22.75
2023-04-02T13:38:15.570Z,26.00
2023-04-02T13:40:42.779Z,25.63
2023-04-02T13:43:16.186Z,28.90
2023-04-02T13:45:46.779Z,29.42
2023-04-02T13:48:16.263Z,30.95
2023-04-02T13:50:55.835Z,29.10
2023-04-02T13:53:45.076Z,31.80
2023-04-02T13:56:12.437Z,42.35
2023-04-02T13:58:58.374Z,48.95
2023-04-02T14:01:28.884Z,50.88
2023-04-02T14:04:09.040Z,40.38
2023-04-02T14:06:40.828Z,31.20
2023-04-02T14:09:31.271Z,35.72
2023-04-02T14:12:04.219Z,32.25
2023-04-02T14:15:00.687Z,30.45
2023-04-02T14:17:47.600Z,37.50
2023-04-02T14:20:35.796Z,37.03
2023-04-02T14:23:23.659Z,41.47
2023-04-02T14:26:07.118Z,51.42
2023-04-02T14:28:39.127Z,48.55
2023-04-02T14:31:19.374Z,49.70
2023-04-02T14:34:04.913Z,50.60
2023-04-02T14:36:48.622Z,55.80
2023-04-02T14:39:15.754Z,55.97
2023-04-02T14:41:48.341Z,50.08
2023-04-02T14:44:16.725Z,49.92
2023-04-02T14:46:43.889Z,50.08
2023-04-02T14:49:20.051Z,45.42
2023-04-02T14:52:11.332Z,43.33
2023-04-02T14:54:53.725Z,49.97
2023-04-02T14:57:33.878Z,44.42
2023-04-02T15:00:13.499Z,49.00
2023-04-02T15:02:49.267Z,44.42
2023-04-02T15:05:21.797Z,42.00
2023-04-02T15:07:54.607Z,42.95
2023-04-02T15:10:27.213Z,41.20
2023-04-02T15:12:58.680Z,44.33
2023-04-02T15:15:36.872Z,43.13
2023-04-02T15:18:10.400Z,40.42
2023-04-02T15:20:49.483Z,47.78
2023-04-02T15:23:35.585Z,45.38
2023-04-02T15:26:02.714Z,45.22
2023-04-02T15:28:58.833Z,51.65
2023-04-02T15:31:37.155Z,59.00
2023-04-02T15:34:18.430Z,65.32
2023-04-02T15:36:45.616Z,65.70
2023-04-02T15:39:31.604Z,65.57
2023-04-02T15:42:11.347Z,61.15
2023-04-02T15:44:43.900Z,57.40
2023-04-02T15:47:15.112Z,58.97
2023-04-02T15:52:21.721Z,59.45
2023-04-02T15:54:48.984Z,61.42
2023-04-02T15:57:25.601Z,67.05
2023-04-02T16:00:04.200Z,59.95
2023-04-02T16:02:31.683Z,57.28
2023-04-02T16:05:04.766Z,56.17
2023-04-02T16:07:44.330Z,58.97
2023-04-02T16:10:11.432Z,55.15
2023-04-02T16:12:40.389Z,56.83
2023-04-02T16:15:14.543Z,54.42
2023-04-02T16:17:44.539Z,56.30
2023-04-02T16:20:25.471Z,53.08
2023-04-02T16:23:00.994Z,55.88
2023-04-02T16:25:32.234Z,59.05
2023-04-02T16:28:02.165Z,56.17
2023-04-02T16:30:30.023Z,58.00
2023-04-02T16:32:57.276Z,59.05
2023-04-02T16:38:00.812Z,61.75
2023-04-02T16:40:33.871Z,57.92
2023-04-02T16:43:07.414Z,56.50
2023-04-02T16:45:48.660Z,48.35
2023-04-02T16:48:15.859Z,51.33
2023-04-02T16:50:49.088Z,47.70
2023-04-02T16:53:19.116Z,45.20
2023-04-02T16:55:46.200Z,48.03
2023-04-02T16:58:16.397Z,48.22
2023-04-02T17:00:49.758Z,41.67
2023-04-02T17:03:44.278Z,49.63
2023-04-02T17:06:14.438Z,51.08
2023-04-02T17:08:48.026Z,54.05
2023-04-02T17:11:25.936Z,50.20
2023-04-02T17:14:06.855Z,52.63
2023-04-02T17:16:36.954Z,58.13
2023-04-02T17:19:08.642Z,45.53
2023-04-02T17:21:38.155Z,48.10
2023-04-02T17:24:20.662Z,45.78
2023-04-02T17:26:50.901Z,44.50
2023-04-02T17:29:20.833Z,49.70
2023-04-02T17:31:49.562Z,46.47
2023-04-02T17:34:17.905Z,49.50
2023-04-02T17:36:49.819Z,47.78
2023-04-02T17:39:23.193Z,43.40
2023-04-02T17:41:54.352Z,37.47
2023-04-02T17:44:29.223Z,35.63
2023-04-02T17:47:02.526Z,32.35
2023-04-02T17:49:45.795Z,31.67
2023-04-02T17:52:12.914Z,28.63
2023-04-02T17:54:45.699Z,31.85
2023-04-02T17:57:12.860Z,30.33
2023-04-02T17:59:58.962Z,30.45
2023-04-02T18:02:29.157Z,31.35
2023-04-02T18:05:05.384Z,27.08
2023-04-02T18:07:44.568Z,42.78
2023-04-02T18:10:16.495Z,35.15
2023-04-02T18:12:43.788Z,38.97
2023-04-02T18:15:22.701Z,36.58
2023-04-02T18:17:52.929Z,36.25
2023-04-02T18:20:33.869Z,31.10
2023-04-02T18:23:19.868Z,31.48
2023-04-02T18:25:47.190Z,33.17
2023-04-02T18:28:20.542Z,35.05
2023-04-02T18:30:49.545Z,32.35
2023-04-02T18:33:46.260Z,28.52
2023-04-02T18:36:24.212Z,24.70
2023-04-02T18:38:55.701Z,20.90
2023-04-02T18:41:46.900Z,24.00
2023-04-02T18:44:20.041Z,22.58
2023-04-02T18:46:55.087Z,19.25
2023-04-02T18:49:29.757Z,22.27
2023-04-02T18:51:59.800Z,20.42
2023-04-02T18:54:30.501Z,23.08
2023-04-02T18:56:57.681Z,20.20
2023-04-02T18:59:49.342Z,21.85
2023-04-02T19:02:34.610Z,20.60
2023-04-02T19:05:04.455Z,21.98
2023-04-02T19:07:33.869Z,19.70
2023-04-02T19:10:06.903Z,19.20
2023-04-02T19:12:34.168Z,18.38
2023-04-02T19:15:01.511Z,19.38
2023-04-02T19:17:32.332Z,18.02
2023-04-02T19:20:11.449Z,18.08
2023-04-02T19:22:38.579Z,18.35
2023-04-02T19:25:06.256Z,17.45
2023-04-02T19:27:42.372Z,17.85
2023-04-02T19:30:09.621Z,17.13
2023-04-02T19:32:36.810Z,17.23
2023-04-02T19:35:22.995Z,17.80
2023-04-02T19:37:56.101Z,19.02
2023-04-02T19:40:32.316Z,16.45
2023-04-02T19:42:59.496Z,17.02
2023-04-02T19:45:26.634Z,16.63
2023-04-02T19:48:06.271Z,23.77
2023-04-02T19:50:33.495Z,20.02
2023-04-02T19:53:00.606Z,21.95
2023-04-02T19:55:27.953Z,30.17
2023-04-02T19:58:04.439Z,30.75
2023-04-02T20:00:42.395Z,37.63
2023-04-02T20:03:09.648Z,34.15
2023-04-02T20:05:37.099Z,35.90
2023-04-02T20:08:04.769Z,39.92
2023-04-02T20:10:31.911Z,29.15
2023-04-02T20:12:59.034Z,30.35
2023-04-02T20:15:26.287Z,27.60
2023-04-02T20:17:53.475Z,30.00
2023-04-02T20:20:20.970Z,22.73
2023-04-02T20:22:48.827Z,23.90
2023-04-02T20:25:16.110Z,23.88
2023-04-02T20:27:43.272Z,22.70
2023-04-02T20:30:10.612Z,25.70
2023-04-02T20:32:38.296Z,25.83
2023-04-02T20:35:06.085Z,24.58
2023-04-02T20:37:33.316Z,29.70
2023-04-02T20:40:00.714Z,31.00
2023-04-02T20:42:27.846Z,31.60
2023-04-02T20:44:54.959Z,38.05
2023-04-02T20:47:22.117Z,38.72
2023-04-02T20:49:50.383Z,38.13
2023-04-02T20:52:17.824Z,34.75
2023-04-02T20:54:44.964Z,37.88
2023-04-02T20:57:12.186Z,36.28
2023-04-02T20:59:39.441Z,35.13
2023-04-02T21:02:06.593Z,34.55
2023-04-02T21:04:33.782Z,33.03
2023-04-02T21:07:01.029Z,33.30
2023-04-02T21:09:28.207Z,28.60
2023-04-02T21:11:55.380Z,24.00
2023-04-02T21:14:22.782Z,24.77
2023-04-02T21:16:49.894Z,22.83
2023-04-02T21:19:17.044Z,20.45
2023-04-02T21:21:44.963Z,21.90
2023-04-02T21:24:12.202Z,18.30
2023-04-02T21:26:40.906Z,18.67
2023-04-02T21:29:08.427Z,19.85
2023-04-02T21:31:36.941Z,19.98
2023-04-02T21:34:04.999Z,20.08
2023-04-02T21:36:34.122Z,18.30
2023-04-02T21:39:02.658Z,18.50
2023-04-02T21:41:31.079Z,15.70
2023-04-02T21:43:59.080Z,20.35
2023-04-02T21:46:27.968Z,25.95
2023-04-02T21:48:55.918Z,28.70
2023-04-02T21:51:24.405Z,30.48
2023-04-02T21:53:54.098Z,26.80
2023-04-02T21:56:22.760Z,28.20
2023-04-02T21:58:50.679Z,22.35
2023-04-02T22:01:26.611Z,24.85
2023-04-02T22:03:57.707Z,19.98
2023-04-02T22:06:25.868Z,23.07
2023-04-02T22:08:54.473Z,24.33
2023-04-02T22:11:23.031Z,20.40
2023-04-02T22:13:50.771Z,19.45
2023-04-02T22:16:19.490Z,19.45
2023-04-02T22:18:46.628Z,18.27
2023-04-02T22:21:14.501Z,23.23
2023-04-02T22:23:41.734Z,17.88
2023-04-02T22:26:09.441Z,18.27
2023-04-02T22:28:36.597Z,18.48
2023-04-02T22:31:07.785Z,21.55
2023-04-02T22:36:02.487Z,20.63
2023-04-02T22:38:30.022Z,19.58
2023-04-02T22:41:04.194Z,21.13
2023-04-02T22:43:31.753Z,20.30
2023-04-02T22:45:58.931Z,20.85
2023-04-02T22:48:26.146Z,18.20
2023-04-02T22:50:53.343Z,19.48
2023-04-02T22:53:20.696Z,21.70
2023-04-02T22:55:47.990Z,21.23
2023-04-02T22:58:15.127Z,19.35
2023-04-02T23:00:42.721Z,21.25
2023-04-02T23:03:09.948Z,21.42
2023-04-02T23:05:37.060Z,23.45
2023-04-02T23:08:05.374Z,27.17
2023-04-02T23:10:32.606Z,27.13
2023-04-02T23:12:59.796Z,27.58
2023-04-02T23:15:26.909Z,30.65
2023-04-02T23:17:54.176Z,28.13
2023-04-02T23:20:21.302Z,30.77
2023-04-02T23:22:48.456Z,25.60
2023-04-02T23:25:15.782Z,27.00
2023-04-02T23:27:42.938Z,33.38
2023-04-02T23:30:10.170Z,31.65
2023-04-02T23:32:37.414Z,35.28
2023-04-02T23:35:06.374Z,32.03
2023-04-02T23:37:33.492Z,34.78
2023-04-02T23:40:00.831Z,36.70
2023-04-02T23:42:28.440Z,33.08
2023-04-02T23:44:55.858Z,33.20
2023-04-02T23:47:23.072Z,31.02
2023-04-02T23:49:50.238Z,32.80
2023-04-02T23:52:17.376Z,28.02
2023-04-02T23:54:44.588Z,32.20
2023-04-02T23:57:11.982Z,33.05
2023-04-02T23:59:40.264Z,29.80
